createdAt,value
2023-02-27T00:01:10.012Z,85.77
2023-02-27T00:07:12.011Z,85.87
2023-02-27T00:13:14.086Z,87.90
2023-02-27T00:19:15.964Z,87.66
2023-02-27T00:25:18.344Z,88.16
2023-02-27T00:31:20.342Z,87.73
2023-02-27T00:37:22.268Z,87.73
2023-02-27T00:43:24.312Z,87.45
2023-02-27T00:49:26.291Z,88.11
2023-02-27T00:55:28.187Z,88.19
2023-02-27T01:01:30.346Z,88.00
2023-02-27T01:07:32.423Z,88.42
2023-02-27T01:13:34.311Z,88.92
2023-02-27T01:19:36.246Z,89.50
2023-02-27T01:25:38.388Z,89.60
2023-02-27T01:31:40.305Z,89.24
2023-02-27T01:37:42.272Z,88.86
2023-02-27T01:44:14.575Z,90.45
2023-02-27T01:50:17.933Z,89.51
2023-02-27T01:56:30.854Z,89.37
2023-02-27T02:02:40.706Z,89.31
2023-02-27T02:08:47.693Z,89.38
2023-02-27T02:14:49.608Z,89.68
2023-02-27T02:22:02.695Z,89.18
2023-02-27T02:29:10.905Z,90.74
2023-02-27T02:35:40.476Z,90.73
2023-02-27T02:42:08.028Z,90.53
2023-02-27T02:48:25.860Z,90.68
2023-02-27T02:54:48.095Z,91.82
2023-02-27T03:01:22.087Z,92.42
2023-02-27T03:07:49.326Z,92.42
2023-02-27T03:13:59.145Z,91.93
2023-02-27T03:20:08.810Z,91.98
2023-02-27T03:26:14.786Z,92.55
2023-02-27T03:33:19.020Z,92.49
2023-02-27T03:39:47.110Z,92.95
2023-02-27T03:46:01.605Z,92.10
2023-02-27T03:52:03.960Z,92.59
2023-02-27T03:58:06.108Z,92.91
2023-02-27T04:04:16.732Z,92.87
2023-02-27T04:10:21.336Z,93.14
2023-02-27T04:17:11.250Z,93.52
2023-02-27T04:23:37.536Z,93.97
2023-02-27T04:30:26.396Z,92.89
2023-02-27T04:36:48.848Z,93.02
2023-02-27T04:42:54.959Z,92.93
2023-02-27T04:49:21.542Z,92.95
2023-02-27T04:56:00.181Z,93.31
2023-02-27T05:02:25.122Z,92.71
2023-02-27T05:09:05.552Z,92.64
2023-02-27T05:15:18.391Z,93.34
2023-02-27T05:21:38.219Z,93.32
2023-02-27T05:27:59.617Z,93.28
2023-02-27T05:34:12.951Z,93.60
2023-02-27T05:40:25.158Z,93.44
2023-02-27T05:46:33.214Z,94.12
2023-02-27T05:52:37.776Z,94.41
2023-02-27T05:58:46.459Z,93.91
2023-02-27T06:04:48.418Z,93.63
2023-02-27T06:10:50.316Z,93.52
2023-02-27T06:16:52.277Z,93.86
2023-02-27T06:22:54.253Z,93.47
2023-02-27T06:28:56.144Z,93.49
2023-02-27T06:34:58.162Z,93.96
2023-02-27T06:41:00.601Z,94.47
2023-02-27T06:47:02.842Z,94.62
2023-02-27T06:53:04.776Z,94.82
2023-02-27T06:59:06.708Z,94.78
2023-02-27T07:05:09.471Z,94.24
2023-02-27T07:11:11.375Z,94.23
2023-02-27T07:17:13.308Z,94.34
2023-02-27T07:23:15.179Z,93.95
2023-02-27T07:29:17.236Z,94.25
2023-02-27T07:35:19.503Z,94.12
2023-02-27T07:41:30.392Z,94.73
2023-02-27T07:47:32.749Z,94.44
2023-02-27T07:53:34.823Z,93.28
2023-02-27T07:59:36.754Z,92.45
2023-02-27T08:05:38.629Z,91.83
2023-02-27T08:11:40.584Z,92.15
2023-02-27T08:17:42.548Z,92.25
2023-02-27T08:23:44.431Z,92.55
2023-02-27T08:29:46.346Z,92.33
2023-02-27T08:35:48.380Z,91.14
2023-02-27T08:41:52.632Z,88.73
2023-02-27T08:47:54.568Z,87.10
2023-02-27T08:53:58.946Z,85.72
2023-02-27T09:00:01.035Z,85.65
2023-02-27T09:06:03.246Z,83.44
2023-02-27T09:12:05.530Z,82.18
2023-02-27T09:18:07.710Z,81.76
2023-02-27T09:24:19.166Z,81.58
2023-02-27T09:30:23.374Z,80.72
2023-02-27T09:36:25.986Z,80.11
2023-02-27T09:42:45.459Z,79.55
2023-02-27T09:49:01.876Z,78.29
2023-02-27T09:55:12.156Z,75.44
2023-02-27T10:01:35.246Z,75.91
2023-02-27T10:08:07.021Z,77.15
2023-02-27T10:14:42.025Z,76.14
2023-02-27T10:20:55.805Z,75.58
2023-02-27T10:27:01.394Z,74.38
2023-02-27T10:33:32.914Z,73.31
2023-02-27T10:39:57.257Z,73.91
2023-02-27T10:46:10.427Z,73.22
2023-02-27T10:52:15.659Z,70.96
2023-02-27T10:58:24.240Z,67.74
2023-02-27T11:04:26.066Z,65.68
2023-02-27T11:10:28.923Z,65.90
2023-02-27T11:16:50.657Z,61.15
2023-02-27T11:23:13.579Z,60.03
2023-02-27T11:29:20.297Z,60.26
2023-02-27T11:35:36.870Z,62.38
2023-02-27T11:41:44.732Z,62.58
2023-02-27T11:47:52.987Z,62.93
2023-02-27T11:54:29.963Z,60.62
2023-02-27T12:00:39.895Z,54.69
2023-02-27T12:07:05.227Z,51.94
2023-02-27T12:13:27.460Z,52.51
2023-02-27T12:19:57.112Z,49.96
2023-02-27T12:26:19.022Z,49.38
2023-02-27T12:32:31.329Z,45.33
2023-02-27T12:38:35.797Z,41.45
2023-02-27T12:45:14.937Z,38.42
2023-02-27T12:51:51.239Z,36.22
2023-02-27T12:58:12.832Z,36.60
2023-02-27T13:04:49.844Z,35.56
2023-02-27T13:11:00.273Z,36.89
2023-02-27T13:17:22.211Z,35.37
2023-02-27T13:24:04.522Z,33.63
2023-02-27T13:30:40.026Z,33.73
2023-02-27T13:36:55.398Z,36.50
2023-02-27T13:43:02.025Z,35.06
2023-02-27T13:49:20.080Z,32.38
2023-02-27T13:55:36.917Z,30.71
2023-02-27T14:01:39.601Z,28.55
2023-02-27T14:07:58.633Z,31.10
2023-02-27T14:14:04.376Z,36.82
2023-02-27T14:20:11.999Z,33.94
2023-02-27T14:26:21.056Z,31.86
2023-02-27T14:32:30.470Z,33.91
2023-02-27T14:38:35.338Z,39.40
2023-02-27T14:44:43.565Z,39.14
2023-02-27T14:50:45.537Z,37.89
2023-02-27T14:57:04.466Z,42.66
2023-02-27T15:03:49.759Z,45.10
2023-02-27T15:09:58.950Z,47.90
2023-02-27T15:16:35.490Z,51.89
2023-02-27T15:22:40.062Z,52.56
2023-02-27T15:28:42.932Z,54.83
2023-02-27T15:34:46.729Z,55.60
2023-02-27T15:40:49.057Z,56.81
2023-02-27T15:46:52.445Z,57.90
2023-02-27T15:53:12.081Z,59.08
2023-02-27T15:59:18.113Z,59.66
2023-02-27T16:05:41.519Z,60.93
2023-02-27T16:11:43.524Z,60.97
2023-02-27T16:18:09.434Z,62.03
2023-02-27T16:24:40.978Z,62.89
2023-02-27T16:30:43.221Z,63.28
2023-02-27T16:37:04.225Z,63.73
2023-02-27T16:43:06.220Z,64.45
2023-02-27T16:49:24.614Z,65.05
2023-02-27T16:55:27.225Z,66.27
2023-02-27T17:01:29.144Z,66.84
2023-02-27T17:07:31.204Z,67.32
2023-02-27T17:13:36.121Z,69.14
2023-02-27T17:19:38.998Z,69.56
2023-02-27T17:25:42.351Z,70.13
2023-02-27T17:31:45.012Z,71.64
2023-02-27T17:37:46.949Z,73.04
2023-02-27T17:43:56.843Z,73.93
2023-02-27T17:49:58.966Z,74.12
2023-02-27T17:56:00.929Z,75.02
2023-02-27T18:02:02.830Z,75.41
2023-02-27T18:08:05.039Z,74.82
2023-02-27T18:14:06.938Z,73.37
2023-02-27T18:20:10.132Z,73.67
2023-02-27T18:26:29.400Z,73.45
2023-02-27T18:32:32.569Z,75.04
2023-02-27T18:38:34.453Z,75.47
2023-02-27T18:44:38.469Z,75.71
2023-02-27T18:50:40.363Z,76.01
2023-02-27T18:56:42.342Z,76.15
2023-02-27T19:02:45.063Z,76.31
2023-02-27T19:08:47.046Z,76.06
2023-02-27T19:14:49.548Z,76.05
2023-02-27T19:20:51.407Z,76.15
2023-02-27T19:26:53.702Z,76.42
2023-02-27T19:32:55.627Z,76.80
2023-02-27T19:38:58.456Z,76.78
2023-02-27T19:45:00.365Z,76.67
2023-02-27T19:51:07.949Z,77.93
2023-02-27T19:57:10.003Z,78.44
2023-02-27T20:03:11.895Z,78.37
2023-02-27T20:09:17.672Z,78.82
2023-02-27T20:15:19.708Z,79.21
2023-02-27T20:21:24.140Z,78.68
2023-02-27T20:27:27.476Z,79.12
2023-02-27T20:33:29.370Z,79.27
2023-02-27T20:39:31.282Z,79.05
2023-02-27T20:45:38.151Z,78.39
2023-02-27T20:51:40.548Z,78.33
2023-02-27T20:57:42.760Z,77.48
2023-02-27T21:03:46.811Z,78.16
2023-02-27T21:09:49.955Z,78.90
2023-02-27T21:15:51.918Z,79.18
2023-02-27T21:21:54.070Z,79.27
2023-02-27T21:28:02.149Z,79.54
2023-02-27T21:34:07.717Z,79.02
2023-02-27T21:40:10.762Z,78.80
2023-02-27T21:46:13.556Z,78.87
2023-02-27T21:52:15.759Z,78.58
2023-02-27T21:58:17.658Z,78.17
2023-02-27T22:04:20.256Z,79.48
2023-02-27T22:10:22.161Z,79.08
2023-02-27T22:16:24.695Z,79.00
2023-02-27T22:22:26.658Z,78.27
2023-02-27T22:28:31.092Z,78.70
2023-02-27T22:34:32.989Z,78.99
2023-02-27T22:40:36.126Z,79.37
2023-02-27T22:46:43.059Z,79.42
2023-02-27T22:52:44.982Z,78.46
2023-02-27T22:58:47.860Z,78.16
2023-02-27T23:04:49.838Z,77.75
2023-02-27T23:10:51.796Z,77.09
2023-02-27T23:16:53.709Z,77.30
2023-02-27T23:22:55.623Z,76.66
2023-02-27T23:28:57.842Z,76.73
2023-02-27T23:34:59.919Z,75.84
2023-02-27T23:41:07.413Z,76.26
2023-02-27T23:47:09.394Z,76.00
2023-02-27T23:53:13.581Z,75.56
2023-02-27T23:59:15.618Z,75.38
